createdAt,value
2023-02-21T00:00:16.607Z,0
2023-02-21T00:15:36.111Z,0
2023-02-21T00:30:55.566Z,0
2023-02-21T00:46:15.013Z,0
2023-02-21T01:01:34.514Z,0
2023-02-21T01:16:53.976Z,0
2023-02-21T01:32:13.455Z,0
2023-02-21T01:47:32.928Z,0
2023-02-21T02:02:52.354Z,0
2023-02-21T02:18:11.851Z,0
2023-02-21T02:33:31.335Z,0
2023-02-21T02:48:50.795Z,0
2023-02-21T03:04:09.256Z,0
2023-02-21T03:19:28.756Z,0
2023-02-21T03:34:48.222Z,0
2023-02-21T03:50:07.691Z,0
2023-02-21T04:05:27.143Z,0
2023-02-21T04:20:46.631Z,0
2023-02-21T04:36:06.090Z,0
2023-02-21T04:51:25.556Z,0
2023-02-21T05:06:44.989Z,0
2023-02-21T05:22:04.502Z,0
2023-02-21T05:37:23.973Z,0
2023-02-21T05:52:43.359Z,0
2023-02-21T06:08:02.820Z,0
2023-02-21T06:23:21.254Z,0
2023-02-21T06:38:40.642Z,5
2023-02-21T06:54:00.081Z,5
2023-02-21T07:09:19.538Z,5
2023-02-21T07:24:38.970Z,22
2023-02-21T07:39:58.395Z,123
2023-02-21T07:55:17.773Z,56
2023-02-21T08:10:37.241Z,56
2023-02-21T08:25:56.657Z,56
2023-02-21T08:41:16.087Z,118
2023-02-21T08:56:35.521Z,84
2023-02-21T09:11:54.953Z,106
2023-02-21T09:27:14.327Z,202
2023-02-21T09:42:33.802Z,326
2023-02-21T09:57:52.224Z,118
2023-02-21T10:13:11.657Z,157
2023-02-21T10:28:31.086Z,61
2023-02-21T10:43:50.497Z,61
2023-02-21T10:59:09.927Z,56
2023-02-21T11:14:29.317Z,56
2023-02-21T11:29:48.723Z,61
2023-02-21T11:45:08.190Z,56
2023-02-21T12:00:27.573Z,118
2023-02-21T12:15:47.037Z,140
2023-02-21T12:31:06.427Z,78
2023-02-21T12:46:25.896Z,33
2023-02-21T13:01:45.315Z,33
2023-02-21T13:17:03.764Z,45
2023-02-21T13:32:23.144Z,39
2023-02-21T13:47:42.607Z,33
2023-02-21T14:03:01.009Z,45
2023-02-21T14:18:20.478Z,56
2023-02-21T14:33:39.856Z,56
2023-02-21T14:48:59.289Z,45
2023-02-21T15:04:18.761Z,33
2023-02-21T15:19:38.172Z,28
2023-02-21T15:34:57.599Z,22
2023-02-21T15:50:17.034Z,16
2023-02-21T16:05:36.405Z,5
2023-02-21T16:20:55.885Z,0
2023-02-21T16:36:15.317Z,0
2023-02-21T16:51:34.692Z,0
2023-02-21T17:06:54.194Z,0
2023-02-21T17:22:12.641Z,0
2023-02-21T17:37:32.161Z,0
2023-02-21T17:52:51.636Z,0
2023-02-21T18:08:11.076Z,0
2023-02-21T18:23:30.552Z,0
2023-02-21T18:38:50.021Z,0
2023-02-21T18:54:09.495Z,0
2023-02-21T19:09:28.972Z,0
2023-02-21T19:24:48.428Z,0
2023-02-21T19:40:07.890Z,0
2023-02-21T19:55:27.377Z,0
2023-02-21T20:10:46.830Z,0
2023-02-21T20:26:06.332Z,0
2023-02-21T20:41:24.799Z,0
2023-02-21T20:56:44.263Z,0
2023-02-21T21:12:03.759Z,0
2023-02-21T21:27:23.214Z,0
2023-02-21T21:42:42.688Z,0
2023-02-21T21:58:02.152Z,0
2023-02-21T22:13:21.625Z,0
2023-02-21T22:28:41.076Z,0
2023-02-21T22:44:00.549Z,0
2023-02-21T22:59:20.040Z,0
2023-02-21T23:14:39.498Z,0
2023-02-21T23:29:58.969Z,0
2023-02-21T23:45:18.433Z,0
